Kapalua-West, HI

11:36 AM HST on December 22, 2014 (GMT -1000)
Lahaina | Change Station
CLOSE
Current Station
Airport
Location: Lahaina,
Elevation: 256 ft
Nearby Weather Stations
Active Advisory: Flash Flood Watch

Elev 256 ft 20.96 °N, 156.67 °W | Updated 51 minutes ago

Scattered Clouds
Scattered Clouds
77 °F
Feels Like 77 °F
N
15
Wind Variable Wind from North

Today
High -- | Low -- °F
--% Chance of Precip.
Yesterday
High -- | Low -- °F
Precip. -- in
6:59 AM 5:51 PM
New Moon, 1% visible
Pressure 30.04 in
Visibility 15.0 miles
Clouds Few 2000 ft
Scattered Clouds 4500 ft
Dew Point 68 °F
Humidity 74%
Rainfall 0.00 in
Snow Depth Not available.
UV 4 out of 12
Pollen Not available.
Air Quality Not available.
Flu Activity Not available.
METAR PHJH 222045Z 36013KT 15SM FEW020 SCT045 25/20 A3004

More Conditions Fewer Conditions

Pressure 30.04 in
Visibility 15.0 miles
Clouds Few 2000 ft
Scattered Clouds 4500 ft
Dew Point 68 °F
Humidity 74%
Rainfall 0.00 in
Snow Depth Not available.
UV 4 out of 12
Pollen Not available.
Air Quality Not available.
Flu Activity Not available.
METAR PHJH 222045Z 36013KT 15SM FEW020 SCT045 25/20 A3004

More Conditions Fewer Conditions

10-Day Weather Forecast

Almanac

Astronomy

Dec. 22, 2014 Rise Set
Actual Time
Civil Twilight
Nautical Twilight
Astronomical Twilight
Moon
Length of Visible Light
Length of Day
Tomorrow will be .
, % of the Moon is Illuminated

Today's Extremes

State Highs State Lows

Community

WunderPhotos

Upload Photos

1,779,683 photos uploaded!

WunderBlogs® & News

Nearby

Air Quality

  Air Quality AQ Index Pollutant
Not available.

Snow Depth

Station Depth Elevation

Earthquake Activity

City Distance Mag. Time & Date
Minimum magnitude displayed is 2.5.

Coastal Water Temperatures

Place Temperature

Nearby Weather Stations